createdAt,value
2018-05-01T00:01:17.120Z,73.32
2018-05-01T00:03:47.785Z,75.85
2018-05-01T00:06:18.490Z,77.07
2018-05-01T00:08:49.096Z,75.95
2018-05-01T00:11:19.952Z,73.05
2018-05-01T00:13:50.740Z,75.25
2018-05-01T00:16:21.535Z,75.43
2018-05-01T00:18:52.676Z,76.80
2018-05-01T00:21:23.408Z,77.12
2018-05-01T00:23:54.009Z,75.55
2018-05-01T00:26:24.694Z,71.60
2018-05-01T00:28:55.348Z,72.68
2018-05-01T00:31:26.118Z,73.07
2018-05-01T00:33:57.059Z,71.28
2018-05-01T00:36:27.719Z,74.25
2018-05-01T00:38:58.374Z,72.62
2018-05-01T00:41:29.079Z,73.95
2018-05-01T00:43:59.938Z,77.07
2018-05-01T00:46:30.691Z,79.00
2018-05-01T00:49:01.399Z,76.30
2018-05-01T00:51:32.416Z,71.80
2018-05-01T00:54:03.140Z,69.78
2018-05-01T00:56:33.698Z,67.05
2018-05-01T00:59:04.309Z,70.30
2018-05-01T01:01:35.010Z,66.82
2018-05-01T01:04:05.803Z,64.70
2018-05-01T01:06:36.533Z,69.07
2018-05-01T01:09:07.413Z,65.82
2018-05-01T01:11:38.372Z,68.62
2018-05-01T01:14:09.196Z,69.30
2018-05-01T01:16:39.923Z,63.72
2018-05-01T01:19:10.685Z,69.80
2018-05-01T01:21:41.365Z,69.18
2018-05-01T01:24:11.992Z,67.78
2018-05-01T01:26:43.031Z,69.93
2018-05-01T01:29:13.642Z,74.43
2018-05-01T01:31:44.321Z,70.47
2018-05-01T01:34:15.052Z,67.10
2018-05-01T01:36:44.167Z,69.50
2018-05-01T01:39:13.332Z,72.53
2018-05-01T01:41:42.552Z,70.87
2018-05-01T01:44:11.655Z,69.47
2018-05-01T01:46:40.744Z,69.47
2018-05-01T01:49:09.983Z,72.95
2018-05-01T01:51:39.153Z,71.70
2018-05-01T01:54:08.333Z,70.72
2018-05-01T01:56:37.640Z,71.03
2018-05-01T01:59:06.805Z,68.43
2018-05-01T02:01:37.766Z,68.35
2018-05-01T02:04:07.059Z,70.03
2018-05-01T02:06:36.103Z,71.35
2018-05-01T02:09:05.224Z,67.40
2018-05-01T02:11:34.317Z,72.35
2018-05-01T02:14:03.456Z,69.57
2018-05-01T02:16:32.644Z,67.80
2018-05-01T02:19:01.912Z,65.05
2018-05-01T02:21:31.040Z,68.00
2018-05-01T02:24:00.305Z,66.60
2018-05-01T02:26:29.384Z,68.57
2018-05-01T02:28:58.529Z,74.00
2018-05-01T02:31:27.660Z,71.05
2018-05-01T02:33:56.783Z,71.57
2018-05-01T02:36:25.941Z,63.95
2018-05-01T02:38:55.217Z,70.65
2018-05-01T02:41:24.446Z,64.53
2018-05-01T02:43:53.665Z,67.70
2018-05-01T02:46:22.865Z,66.07
2018-05-01T02:48:51.859Z,69.57
2018-05-01T02:51:21.187Z,67.93
2018-05-01T02:53:50.744Z,70.07
2018-05-01T02:56:20.036Z,66.32
2018-05-01T02:58:49.138Z,71.22
2018-05-01T03:01:18.294Z,69.37
2018-05-01T03:03:47.328Z,70.47
2018-05-01T03:06:16.440Z,66.03
2018-05-01T03:08:45.597Z,69.47
2018-05-01T03:11:14.920Z,67.85
2018-05-01T03:13:44.102Z,64.07
2018-05-01T03:16:13.227Z,68.07
2018-05-01T03:18:42.284Z,61.67
2018-05-01T03:21:11.475Z,65.45
2018-05-01T03:23:40.630Z,62.58
2018-05-01T03:26:09.761Z,62.90
2018-05-01T03:28:38.944Z,67.47
2018-05-01T03:31:08.050Z,66.93
2018-05-01T03:33:37.114Z,61.92
2018-05-01T03:36:06.145Z,70.12
2018-05-01T03:38:35.382Z,66.20
2018-05-01T03:41:04.492Z,62.38
2018-05-01T03:43:33.579Z,64.45
2018-05-01T03:46:02.701Z,61.55
2018-05-01T03:48:32.284Z,65.25
2018-05-01T03:51:01.538Z,66.60
2018-05-01T03:53:30.635Z,71.30
2018-05-01T03:55:59.872Z,61.60
2018-05-01T03:58:28.900Z,62.03
2018-05-01T04:00:58.512Z,66.12
2018-05-01T04:03:27.525Z,64.40
2018-05-01T04:05:56.716Z,64.35
2018-05-01T04:08:25.872Z,67.12
2018-05-01T04:10:54.959Z,70.78
2018-05-01T04:13:24.085Z,69.97
2018-05-01T04:15:53.268Z,67.45
2018-05-01T04:18:22.381Z,66.43
2018-05-01T04:20:51.440Z,69.20
2018-05-01T04:23:20.653Z,66.50
2018-05-01T04:25:49.784Z,68.47
2018-05-01T04:28:18.923Z,69.82
2018-05-01T04:30:48.017Z,65.80
2018-05-01T04:33:17.269Z,63.10
2018-05-01T04:35:46.401Z,62.75
2018-05-01T04:38:15.565Z,69.82
2018-05-01T04:40:44.642Z,61.95
2018-05-01T04:43:13.744Z,69.22
2018-05-01T04:45:43.049Z,70.87
2018-05-01T04:48:12.251Z,64.03
2018-05-01T04:50:41.328Z,63.28
2018-05-01T04:53:10.469Z,72.12
2018-05-01T04:55:39.788Z,71.12
2018-05-01T04:58:08.901Z,72.53
2018-05-01T05:00:38.120Z,72.32
2018-05-01T05:03:07.281Z,74.50
2018-05-01T05:05:36.386Z,72.57
2018-05-01T05:08:05.586Z,67.37
2018-05-01T05:10:34.736Z,67.50
2018-05-01T05:13:03.903Z,68.78
2018-05-01T05:15:33.247Z,67.82
2018-05-01T05:18:02.375Z,67.80
2018-05-01T05:20:31.657Z,63.20
2018-05-01T05:23:00.670Z,70.12
2018-05-01T05:25:30.032Z,68.50
2018-05-01T05:27:59.125Z,68.90
2018-05-01T05:30:28.308Z,70.20
2018-05-01T05:32:57.441Z,75.55
2018-05-01T05:35:26.701Z,66.20
2018-05-01T05:37:55.881Z,73.55
2018-05-01T05:40:25.307Z,72.45
2018-05-01T05:42:54.662Z,72.80
2018-05-01T05:45:23.788Z,72.10
2018-05-01T05:47:52.930Z,73.87
2018-05-01T05:50:23.440Z,71.80
2018-05-01T05:52:52.745Z,76.50
2018-05-01T05:55:21.853Z,68.65
2018-05-01T05:57:57.292Z,77.35
2018-05-01T06:00:26.768Z,67.87
2018-05-01T06:02:56.350Z,72.43
2018-05-01T06:05:26.113Z,69.43
2018-05-01T06:07:55.530Z,68.93
2018-05-01T06:10:24.924Z,67.65
2018-05-01T06:12:54.935Z,66.03
2018-05-01T06:15:24.311Z,68.40
2018-05-01T06:17:53.940Z,80.57
2018-05-01T06:20:23.229Z,70.25
2018-05-01T06:22:52.981Z,69.47
2018-05-01T06:25:22.227Z,71.80
2018-05-01T06:27:51.662Z,72.43
2018-05-01T06:30:21.336Z,74.10
2018-05-01T06:32:50.619Z,71.45
2018-05-01T06:35:20.303Z,69.78
2018-05-01T06:37:50.026Z,71.05
2018-05-01T06:40:19.955Z,68.37
2018-05-01T06:42:49.660Z,67.97
2018-05-01T06:45:19.137Z,99.47
2018-05-01T06:47:48.505Z,76.32
2018-05-01T06:50:18.037Z,71.57
2018-05-01T06:52:47.409Z,74.35
2018-05-01T06:55:17.043Z,76.45
2018-05-01T06:57:46.628Z,67.70
2018-05-01T07:00:16.219Z,66.75
2018-05-01T07:02:46.428Z,79.65
2018-05-01T07:05:16.231Z,61.20
2018-05-01T07:07:46.141Z,65.45
2018-05-01T07:10:15.675Z,65.72
2018-05-01T07:12:45.247Z,67.45
2018-05-01T07:15:15.316Z,68.70
2018-05-01T07:17:44.686Z,67.00
2018-05-01T07:20:14.028Z,65.05
2018-05-01T07:22:43.597Z,74.22
2018-05-01T07:25:13.060Z,69.97
2018-05-01T07:27:42.601Z,70.15
2018-05-01T07:30:12.074Z,71.95
2018-05-01T07:32:41.434Z,72.25
2018-05-01T07:35:11.287Z,71.80
2018-05-01T07:37:41.041Z,65.10
2018-05-01T07:40:10.489Z,66.07
2018-05-01T07:42:40.154Z,68.57
2018-05-01T07:45:09.798Z,68.57
2018-05-01T07:47:39.163Z,72.85
2018-05-01T07:50:08.669Z,59.88
2018-05-01T07:52:38.066Z,66.62
2018-05-01T07:55:07.483Z,69.85
2018-05-01T07:57:36.884Z,67.87
2018-05-01T08:00:06.369Z,66.68
2018-05-01T08:02:35.942Z,67.70
2018-05-01T08:05:05.652Z,69.95
2018-05-01T08:07:35.182Z,65.95
2018-05-01T08:10:04.565Z,69.12
2018-05-01T08:12:33.986Z,69.37
2018-05-01T08:15:04.688Z,68.90
2018-05-01T08:17:34.285Z,68.45
2018-05-01T08:20:04.109Z,61.95
2018-05-01T08:22:34.283Z,65.53
2018-05-01T08:25:03.684Z,64.32
2018-05-01T08:27:33.262Z,62.97
2018-05-01T08:30:02.780Z,58.58
2018-05-01T08:32:32.313Z,65.97
2018-05-01T08:35:01.719Z,72.47
2018-05-01T08:37:32.041Z,72.45
2018-05-01T08:40:01.589Z,74.43
2018-05-01T08:42:31.514Z,65.18
2018-05-01T08:45:01.159Z,68.40
2018-05-01T08:47:30.821Z,65.95
2018-05-01T08:50:00.216Z,74.68
2018-05-01T08:52:30.474Z,68.90
2018-05-01T08:55:00.608Z,70.30
2018-05-01T08:57:30.007Z,72.65
2018-05-01T09:00:00.245Z,68.85
2018-05-01T09:02:29.733Z,72.93
2018-05-01T09:04:59.229Z,80.05
2018-05-01T09:07:28.799Z,80.50
2018-05-01T09:09:58.446Z,73.70
2018-05-01T09:12:27.998Z,69.50
2018-05-01T09:14:57.399Z,71.35
2018-05-01T09:17:26.881Z,72.37
2018-05-01T09:19:56.634Z,78.00
2018-05-01T09:22:26.315Z,75.90
2018-05-01T09:24:56.019Z,78.85
2018-05-01T09:27:25.401Z,75.87
2018-05-01T09:29:54.954Z,76.15
2018-05-01T09:32:24.739Z,75.15
2018-05-01T09:34:54.153Z,80.20
2018-05-01T09:37:23.836Z,77.97
2018-05-01T09:39:53.435Z,74.30
2018-05-01T09:42:23.075Z,72.35
2018-05-01T09:44:52.752Z,76.68
2018-05-01T09:47:22.485Z,72.37
2018-05-01T09:49:52.168Z,80.57
2018-05-01T09:52:23.676Z,74.87
2018-05-01T09:54:56.214Z,75.07
2018-05-01T09:57:28.092Z,72.95
2018-05-01T09:59:59.420Z,74.43
2018-05-01T10:02:31.648Z,73.20
2018-05-01T10:05:03.320Z,79.25
2018-05-01T10:07:35.244Z,73.07
2018-05-01T10:10:06.750Z,81.07
2018-05-01T10:12:38.167Z,77.55
2018-05-01T10:15:09.787Z,83.03
2018-05-01T10:17:41.284Z,74.90
2018-05-01T10:20:12.518Z,77.53
2018-05-01T10:22:44.401Z,76.60
2018-05-01T10:25:15.851Z,76.40
2018-05-01T10:27:47.471Z,75.00
2018-05-01T10:30:19.171Z,73.62
2018-05-01T10:32:50.456Z,78.22
2018-05-01T10:35:22.152Z,72.78
2018-05-01T10:37:53.472Z,69.70
2018-05-01T10:40:24.623Z,69.25
2018-05-01T10:42:55.831Z,70.93
2018-05-01T10:45:27.194Z,68.07
2018-05-01T10:47:58.552Z,76.32
2018-05-01T10:50:29.851Z,72.12
2018-05-01T10:53:01.127Z,76.22
2018-05-01T10:55:32.424Z,69.37
2018-05-01T10:58:03.590Z,72.72
2018-05-01T11:00:34.946Z,68.82
2018-05-01T11:03:06.504Z,78.97
2018-05-01T11:05:37.947Z,72.70
2018-05-01T11:08:09.205Z,74.05
2018-05-01T11:10:40.475Z,81.93
2018-05-01T11:13:11.765Z,79.80
2018-05-01T11:15:47.470Z,78.53
2018-05-01T11:18:18.656Z,80.07
2018-05-01T11:20:49.791Z,73.47
2018-05-01T11:23:21.183Z,74.72
2018-05-01T11:25:53.224Z,81.40
2018-05-01T11:28:24.612Z,73.65
2018-05-01T11:30:55.925Z,74.12
2018-05-01T11:33:27.597Z,82.45
2018-05-01T11:35:59.137Z,75.97
2018-05-01T11:38:32.196Z,75.62
2018-05-01T11:41:03.856Z,82.28
2018-05-01T11:43:35.197Z,73.15
2018-05-01T11:46:06.530Z,70.75
2018-05-01T11:48:37.836Z,75.00
2018-05-01T11:51:09.462Z,66.72
2018-05-01T11:53:40.772Z,71.47
2018-05-01T11:56:12.032Z,69.18
2018-05-01T11:58:43.378Z,73.57
2018-05-01T12:01:14.639Z,76.45
2018-05-01T12:03:45.920Z,81.05
2018-05-01T12:06:17.400Z,74.68
2018-05-01T12:08:49.793Z,67.55
2018-05-01T12:11:21.025Z,67.68
2018-05-01T12:13:52.237Z,78.57
2018-05-01T12:16:23.328Z,83.70
2018-05-01T12:18:54.441Z,80.22
2018-05-01T12:21:25.528Z,81.97
2018-05-01T12:23:57.325Z,71.37
2018-05-01T12:26:28.732Z,85.57
2018-05-01T12:28:59.878Z,73.32
2018-05-01T12:31:31.904Z,72.30
2018-05-01T12:34:03.068Z,77.45
2018-05-01T12:36:34.953Z,83.75
2018-05-01T12:39:06.302Z,79.00
2018-05-01T12:41:38.125Z,74.60
2018-05-01T12:44:10.001Z,75.20
2018-05-01T12:46:41.044Z,75.60
2018-05-01T12:49:12.391Z,80.07
2018-05-01T12:51:43.695Z,80.90
2018-05-01T12:54:15.822Z,77.32
2018-05-01T12:56:46.945Z,76.10
2018-05-01T12:59:18.382Z,78.18
2018-05-01T13:01:49.790Z,82.32
2018-05-01T13:04:21.358Z,82.95
2018-05-01T13:06:52.520Z,84.93
2018-05-01T13:09:23.881Z,79.18
2018-05-01T13:11:55.486Z,81.68
2018-05-01T13:14:26.669Z,78.68
2018-05-01T13:16:57.885Z,76.60
2018-05-01T13:19:29.029Z,74.68
2018-05-01T13:22:00.069Z,85.15
2018-05-01T13:24:32.861Z,81.85
2018-05-01T13:27:04.141Z,77.03
2018-05-01T13:29:35.349Z,81.85
2018-05-01T13:32:06.637Z,71.28
2018-05-01T13:34:37.743Z,75.93
2018-05-01T13:37:08.902Z,73.62
2018-05-01T13:39:40.061Z,77.85
2018-05-01T13:42:11.127Z,71.72
2018-05-01T13:44:42.444Z,81.50
2018-05-01T13:47:13.542Z,84.93
2018-05-01T13:49:45.290Z,77.50
2018-05-01T13:52:16.393Z,81.80
2018-05-01T13:54:47.559Z,79.53
2018-05-01T13:57:20.227Z,82.45
2018-05-01T13:59:51.707Z,77.97
2018-05-01T14:02:23.712Z,83.00
2018-05-01T14:04:54.901Z,74.78
2018-05-01T14:07:26.429Z,73.70
2018-05-01T14:09:57.719Z,78.62
2018-05-01T14:12:29.963Z,76.95
2018-05-01T14:15:01.950Z,79.55
2018-05-01T14:17:33.105Z,80.38
2018-05-01T14:20:04.676Z,76.50
2018-05-01T14:22:35.685Z,78.35
2018-05-01T14:25:07.314Z,82.85
2018-05-01T14:27:38.647Z,80.25
2018-05-01T14:30:09.896Z,82.70
2018-05-01T14:32:41.131Z,80.47
2018-05-01T14:35:12.656Z,78.40
2018-05-01T14:37:43.867Z,83.78
2018-05-01T14:40:15.051Z,84.43
2018-05-01T14:42:46.017Z,83.85
2018-05-01T14:45:17.238Z,80.95
2018-05-01T14:47:49.516Z,86.53
2018-05-01T14:50:20.753Z,83.20
2018-05-01T14:52:52.886Z,82.80
2018-05-01T14:55:24.050Z,89.20
2018-05-01T14:57:54.940Z,80.78
2018-05-01T15:00:26.261Z,83.25
2018-05-01T15:03:04.473Z,82.97
2018-05-01T15:05:35.987Z,84.32
2018-05-01T15:08:07.221Z,80.50
2018-05-01T15:10:38.206Z,86.65
2018-05-01T15:13:09.426Z,79.70
2018-05-01T15:15:40.664Z,82.75
2018-05-01T15:18:11.756Z,81.20
2018-05-01T15:20:43.018Z,89.72
2018-05-01T15:23:14.353Z,87.40
2018-05-01T15:25:45.810Z,88.65
2018-05-01T15:28:17.376Z,89.82
2018-05-01T15:30:49.047Z,78.93
2018-05-01T15:33:20.226Z,77.47
2018-05-01T15:35:51.387Z,81.22
2018-05-01T15:38:22.633Z,71.78
2018-05-01T15:40:53.889Z,80.75
2018-05-01T15:43:24.969Z,78.95
2018-05-01T15:45:56.627Z,81.20
2018-05-01T15:48:28.043Z,75.22
2018-05-01T15:50:59.271Z,74.47
2018-05-01T15:53:30.407Z,73.03
2018-05-01T15:56:02.737Z,83.25
2018-05-01T15:58:33.682Z,79.05
2018-05-01T16:01:05.368Z,79.82
2018-05-01T16:03:36.266Z,79.12
2018-05-01T16:06:07.824Z,73.55
2018-05-01T16:08:38.837Z,75.68
2018-05-01T16:11:09.897Z,74.53
2018-05-01T16:13:41.297Z,81.35
2018-05-01T16:16:12.637Z,84.62
2018-05-01T16:18:43.834Z,84.03
2018-05-01T16:21:15.099Z,87.50
2018-05-01T16:23:46.289Z,83.97
2018-05-01T16:26:17.422Z,79.40
2018-05-01T16:28:48.733Z,74.50
2018-05-01T16:31:19.906Z,80.12
2018-05-01T16:33:51.095Z,84.72
2018-05-01T16:36:22.606Z,90.45
2018-05-01T16:38:53.694Z,80.30
2018-05-01T16:41:25.020Z,76.78
2018-05-01T16:43:56.271Z,83.85
2018-05-01T16:46:27.810Z,80.40
2018-05-01T16:48:59.220Z,73.07
2018-05-01T16:51:30.883Z,77.85
2018-05-01T16:54:02.052Z,70.07
2018-05-01T16:56:33.315Z,68.03
2018-05-01T16:59:04.667Z,62.95
2018-05-01T17:01:35.763Z,72.10
2018-05-01T17:04:07.018Z,65.80
2018-05-01T17:06:38.889Z,76.15
2018-05-01T17:09:09.944Z,77.68
2018-05-01T17:11:41.217Z,72.28
2018-05-01T17:14:12.505Z,72.28
2018-05-01T17:16:44.233Z,71.00
2018-05-01T17:19:15.490Z,76.70
2018-05-01T17:21:46.858Z,76.70
2018-05-01T17:24:18.181Z,76.85
2018-05-01T17:26:49.993Z,74.40
2018-05-01T17:29:21.157Z,77.47
2018-05-01T17:31:52.737Z,73.97
2018-05-01T17:34:24.410Z,77.75
2018-05-01T17:36:55.886Z,82.70
2018-05-01T17:39:26.907Z,76.65
2018-05-01T17:41:59.368Z,88.62
2018-05-01T17:44:31.791Z,82.18
2018-05-01T17:47:04.904Z,72.62
2018-05-01T17:49:40.194Z,71.70
2018-05-01T17:52:11.756Z,77.20
2018-05-01T17:54:42.996Z,73.40
2018-05-01T17:57:14.606Z,79.37
2018-05-01T17:59:45.795Z,76.95
2018-05-01T18:02:17.368Z,77.18
2018-05-01T18:04:49.598Z,79.72
2018-05-01T18:07:20.898Z,71.82
2018-05-01T18:09:53.941Z,82.62
2018-05-01T18:12:25.250Z,82.85
2018-05-01T18:14:56.298Z,75.87
2018-05-01T18:17:27.422Z,77.12
2018-05-01T18:19:58.463Z,81.63
2018-05-01T18:22:30.801Z,86.75
2018-05-01T18:25:01.858Z,80.60
2018-05-01T18:27:33.859Z,87.75
2018-05-01T18:30:04.996Z,76.95
2018-05-01T18:32:36.601Z,79.25
2018-05-01T18:35:07.696Z,76.55
2018-05-01T18:37:39.642Z,76.05
2018-05-01T18:40:10.578Z,83.03
2018-05-01T18:42:41.820Z,77.75
2018-05-01T18:45:12.880Z,77.30
2018-05-01T18:47:44.623Z,81.35
2018-05-01T18:50:15.639Z,73.75
2018-05-01T18:52:46.960Z,72.97
2018-05-01T18:55:18.548Z,78.35
2018-05-01T18:57:49.781Z,85.82
2018-05-01T19:00:20.825Z,78.82
2018-05-01T19:02:52.167Z,85.85
2018-05-01T19:05:23.121Z,82.60
2018-05-01T19:07:54.730Z,81.82
2018-05-01T19:10:26.093Z,76.18
2018-05-01T19:12:58.009Z,75.43
2018-05-01T19:15:30.259Z,69.43
2018-05-01T19:18:02.319Z,71.65
2018-05-01T19:20:33.281Z,72.28
2018-05-01T19:23:04.406Z,78.05
2018-05-01T19:25:35.669Z,71.40
2018-05-01T19:28:06.768Z,72.72
2018-05-01T19:30:54.320Z,103.38
2018-05-01T19:33:27.024Z,85.85
2018-05-01T19:35:58.581Z,76.78
2018-05-01T19:38:30.625Z,77.25
2018-05-01T19:41:03.116Z,74.87
2018-05-01T19:43:34.624Z,82.18
2018-05-01T19:46:05.948Z,76.95
2018-05-01T19:48:37.160Z,77.53
2018-05-01T19:51:15.155Z,85.07
2018-05-01T19:54:03.430Z,81.53
2018-05-01T19:56:37.705Z,85.72
2018-05-01T19:59:08.716Z,69.10
2018-05-01T20:01:55.253Z,69.28
2018-05-01T20:04:26.735Z,76.97
2018-05-01T20:06:57.433Z,77.35
2018-05-01T20:09:28.328Z,74.72
2018-05-01T20:11:59.037Z,71.78
2018-05-01T20:14:29.825Z,73.43
2018-05-01T20:17:00.567Z,76.20
2018-05-01T20:19:31.538Z,72.22
2018-05-01T20:22:02.348Z,69.70
2018-05-01T20:24:33.084Z,69.82
2018-05-01T20:27:03.750Z,72.75
2018-05-01T20:29:34.780Z,72.47
2018-05-01T20:32:05.470Z,72.82
2018-05-01T20:34:36.151Z,67.70
2018-05-01T20:37:06.844Z,61.40
2018-05-01T20:39:37.989Z,67.37
2018-05-01T20:42:08.533Z,75.80
2018-05-01T20:44:39.201Z,69.35
2018-05-01T20:47:09.918Z,86.80
2018-05-01T20:49:41.040Z,68.70
2018-05-01T20:52:11.660Z,73.28
2018-05-01T20:54:42.690Z,79.78
2018-05-01T20:57:13.345Z,75.05
2018-05-01T20:59:44.288Z,69.80
2018-05-01T21:02:15.004Z,71.20
2018-05-01T21:04:45.646Z,68.40
2018-05-01T21:07:16.217Z,73.60
2018-05-01T21:09:47.907Z,71.65
2018-05-01T21:12:18.557Z,71.53
2018-05-01T21:14:49.220Z,71.85
2018-05-01T21:17:19.869Z,66.15
2018-05-01T21:19:50.663Z,69.95
2018-05-01T21:22:21.241Z,70.00
2018-05-01T21:24:51.928Z,69.60
2018-05-01T21:27:22.594Z,69.82
2018-05-01T21:29:53.480Z,70.78
2018-05-01T21:32:24.039Z,69.07
2018-05-01T21:34:54.632Z,72.22
2018-05-01T21:37:25.256Z,72.25
2018-05-01T21:39:56.092Z,68.03
2018-05-01T21:42:26.796Z,63.87
2018-05-01T21:44:57.419Z,67.00
2018-05-01T21:47:28.048Z,68.28
2018-05-01T21:49:59.009Z,66.43
2018-05-01T21:52:29.579Z,67.93
2018-05-01T21:55:00.099Z,68.28
2018-05-01T21:57:30.588Z,70.85
2018-05-01T22:00:02.304Z,66.60
2018-05-01T22:02:33.140Z,64.87
2018-05-01T22:05:03.975Z,63.58
2018-05-01T22:07:34.680Z,61.58
2018-05-01T22:10:05.402Z,62.33
2018-05-01T22:12:35.988Z,64.37
2018-05-01T22:15:08.425Z,66.12
2018-05-01T22:17:39.463Z,62.17
2018-05-01T22:20:10.279Z,67.97
2018-05-01T22:22:40.799Z,71.80
2018-05-01T22:25:11.560Z,67.50
2018-05-01T22:27:42.042Z,64.47
2018-05-01T22:30:13.347Z,63.22
2018-05-01T22:32:43.955Z,65.57
2018-05-01T22:35:14.777Z,61.85
2018-05-01T22:37:45.378Z,58.25
2018-05-01T22:40:16.004Z,57.70
2018-05-01T22:42:46.689Z,62.67
2018-05-01T22:45:17.469Z,60.47
2018-05-01T22:47:48.097Z,58.15
2018-05-01T22:50:19.100Z,55.20
2018-05-01T22:52:49.760Z,57.33
2018-05-01T22:55:20.528Z,57.08
2018-05-01T22:57:51.157Z,58.47
2018-05-01T23:00:22.905Z,56.17
2018-05-01T23:02:53.320Z,56.65
2018-05-01T23:05:24.119Z,55.30
2018-05-01T23:07:54.744Z,57.53
2018-05-01T23:10:25.381Z,63.60
2018-05-01T23:12:56.238Z,59.80
2018-05-01T23:15:26.998Z,59.60
2018-05-01T23:17:57.867Z,62.50
2018-05-01T23:20:28.640Z,55.10
2018-05-01T23:22:59.209Z,62.85
2018-05-01T23:25:30.178Z,60.97
2018-05-01T23:28:00.831Z,59.10
2018-05-01T23:30:31.950Z,58.63
2018-05-01T23:33:02.568Z,55.05
2018-05-01T23:35:33.188Z,54.08
2018-05-01T23:38:03.890Z,55.78
2018-05-01T23:40:34.580Z,64.47
2018-05-01T23:43:05.104Z,59.47
2018-05-01T23:45:35.796Z,58.83
2018-05-01T23:48:06.372Z,56.42
2018-05-01T23:50:37.069Z,61.53
2018-05-01T23:53:07.722Z,57.53
2018-05-01T23:55:38.590Z,55.63
2018-05-01T23:58:09.221Z,63.25
